Latest Weather Observations for Inner Beacon

IDQ60901

Issued at 3:35 pm EST Thursday 18 September 2014 (issued every 10 minutes, with the page automatically refreshed every 10 minutes)

About weather observations | Map of Brisbane area stations | Latest observations for Brisbane area | Other Formats
Station Details ID: 040926 Name: INNER RECIPROCAL MARKER Lat: -27.26 Lon: 153.24 Height: 20.0 m
Data from the previous 72 hours. | See also: Recent months for locations in Queensland
Date/Time
EST
Tmp

°C
App
Tmp
°C
Dew
Point
°C
Rel
Hum
%
Delta-T

°C
Wind Press
QNH
hPa
Press
MSL
hPa
Rain
since
9 am
mm
Dir
 
Spd
km/h
Gust
km/h
Spd
kts
Gust
kts
18/03:30pm - - - - - E 24 28 13 15 - - -
18/03:00pm - - - - - E 22 26 12 14 - - -
18/02:30pm - - - - - E 22 26 12 14 - - -
18/02:00pm - - - - - E 19 20 10 11 - - -
18/01:30pm - - - - - E 17 19 9 10 - - -
18/01:00pm - - - - - E 15 17 8 9 - - -
18/12:30pm - - - - - ENE 7 11 4 6 - - -
18/12:00pm - - - - - SSE 11 15 6 8 - - -
18/11:30am - - - - - S 7 9 4 5 - - -
18/11:00am - - - - - SW 11 13 6 7 - - -
18/10:30am - - - - - SW 20 26 11 14 - - -
18/10:00am - - - - - S 13 17 7 9 - - -
18/09:30am - - - - - S 13 19 7 10 - - -
18/09:00am - - - - - SSW 19 22 10 12 - - -
18/08:30am - - - - - SSW 22 26 12 14 - - -
18/08:00am - - - - - SSW 22 26 12 14 - - -
18/07:30am - - - - - SW 24 28 13 15 - - -
18/07:00am - - - - - SW 24 26 13 14 - - -
18/06:30am - - - - - SW 20 24 11 13 - - -
18/06:00am - - - - - WSW 13 15 7 8 - - -
18/05:30am - - - - - W 13 15 7 8 - - -
18/05:00am - - - - - W 13 17 7 9 - - -
18/04:30am - - - - - W 15 17 8 9 - - -
18/04:00am - - - - - SW 15 17 8 9 - - -
18/03:30am - - - - - WSW 15 17 8 9 - - -
18/03:00am - - - - - WSW 9 13 5 7 - - -
18/02:30am - - - - - WSW 11 13 6 7 - - -
18/02:00am - - - - - SW 11 13 6 7 - - -
18/01:30am - - - - - SW 13 15 7 8 - - -
18/01:00am - - - - - SSE 13 17 7 9 - - -
18/12:30am - - - - - S 17 20 9 11 - - -
18/12:00am - - - - - SSW 19 22 10 12 - - -
 
Date/Time
EST
Tmp

°C
App
Tmp
°C
Dew
Point
°C
Rel
Hum
%
Delta-T

°C
Wind Press
QNH
hPa
Press
MSL
hPa
Rain
since
9 am
mm
Dir
 
Spd
km/h
Gust
km/h
Spd
kts
Gust
kts
17/11:30pm - - - - - SW 11 15 6 8 - - -
17/11:00pm - - - - - SW 7 11 4 6 - - -
17/10:30pm - - - - - WSW 9 9 5 5 - - -
17/10:00pm - - - - - W 15 15 8 8 - - -
17/09:30pm - - - - - WNW 13 15 7 8 - - -
17/09:00pm - - - - - WNW 7 9 4 5 - - -
17/08:30pm - - - - - N 9 11 5 6 - - -
17/08:00pm - - - - - N 11 17 6 9 - - -
17/07:30pm - - - - - N 15 22 8 12 - - -
17/07:00pm - - - - - NE 24 32 13 17 - - -
17/06:30pm - - - - - NE 19 22 10 12 - - -
17/06:00pm - - - - - NE 22 24 12 13 - - -
17/05:30pm - - - - - NE 30 35 16 19 - - -
17/05:00pm - - - - - NE 24 28 13 15 - - -
17/04:00pm - - - - - NE 28 33 15 18 - - -
17/03:30pm - - - - - NE 30 33 16 18 - - -
17/03:00pm - - - - - NE 26 30 14 16 - - -
17/02:30pm - - - - - NE 20 24 11 13 - - -
17/02:00pm - - - - - NE 22 26 12 14 - - -
17/01:30pm - - - - - NE 11 15 6 8 - - -
17/01:00pm - - - - - NE 11 13 6 7 - - -
17/12:30pm - - - - - NE 11 13 6 7 - - -
17/12:00pm - - - - - NE 7 7 4 4 - - -
17/11:30am - - - - - NE 7 9 4 5 - - -
17/11:00am - - - - - NE 13 13 7 7 - - -
17/10:30am - - - - - NE 13 13 7 7 - - -
17/10:00am - - - - - NE 9 15 5 8 - - -
17/09:30am - - - - - NE 7 11 4 6 - - -
17/09:00am - - - - - NNW 2 4 1 2 - - -
17/08:30am - - - - - NNW 9 11 5 6 - - -
17/08:00am - - - - - NNW 13 15 7 8 - - -
17/07:30am - - - - - NW 17 19 9 10 - - -
17/07:00am - - - - - NNW 19 24 10 13 - - -
17/06:30am - - - - - N 20 22 11 12 - - -
17/06:00am - - - - - N 24 28 13 15 - - -
17/05:30am - - - - - N 28 30 15 16 - - -
17/05:00am - - - - - N 30 33 16 18 - - -
17/04:30am - - - - - N 30 35 16 19 - - -
17/04:00am - - - - - N 32 37 17 20 - - -
17/03:30am - - - - - NE 28 33 15 18 - - -
17/03:00am - - - - - NE 32 35 17 19 - - -
17/02:30am - - - - - NE 32 35 17 19 - - -
17/02:00am - - - - - NE 33 37 18 20 - - -
17/01:30am - - - - - NNE 33 39 18 21 - - -
17/01:00am - - - - - NNE 30 35 16 19 - - -
17/12:30am - - - - - N 28 33 15 18 - - -
17/12:00am - - - - - N 32 39 17 21 - - -
 
Date/Time
EST
Tmp

°C
App
Tmp
°C
Dew
Point
°C
Rel
Hum
%
Delta-T

°C
Wind Press
QNH
hPa
Press
MSL
hPa
Rain
since
9 am
mm
Dir
 
Spd
km/h
Gust
km/h
Spd
kts
Gust
kts
16/11:30pm - - - - - NNW 30 35 16 19 - - -
16/11:00pm - - - - - N 32 37 17 20 - - -
16/10:30pm - - - - - NE 35 43 19 23 - - -
16/10:00pm - - - - - NE 35 41 19 22 - - -
16/09:30pm - - - - - NE 32 37 17 20 - - -
16/09:00pm - - - - - NE 32 35 17 19 - - -
16/08:30pm - - - - - NE 30 35 16 19 - - -
16/08:00pm - - - - - NE 41 50 22 27 - - -
16/07:30pm - - - - - NE 37 46 20 25 - - -
16/07:08pm - - - - - NE 39 44 21 24 - - -
16/07:00pm - - - - - N 35 41 19 22 - - -
16/06:58pm - - - - - N 37 41 20 22 - - -
16/06:48pm - - - - - NE 37 41 20 22 - - -
16/06:42pm - - - - - N 37 46 20 25 - - -
16/06:30pm - - - - - NW 33 61 18 33 - - -
16/06:28pm - - - - - NW 33 61 18 33 - - -
16/06:18pm - - - - - NNW 30 32 16 17 - - -
16/06:05pm - - - - - N 41 46 22 25 - - -
16/06:00pm - - - - - NE 44 54 24 29 - - -
16/05:30pm - - - - - NE 33 39 18 21 - - -
16/05:00pm - - - - - NE 43 50 23 27 - - -
16/04:30pm - - - - - NE 41 48 22 26 - - -
16/04:00pm - - - - - NE 39 46 21 25 - - -
16/03:30pm - - - - - NE 39 48 21 26 - - -
16/03:14pm - - - - - NE 54 63 29 34 - - -
16/03:12pm - - - - - N 48 70 26 38 - - -
16/03:08pm - - - - - N 43 48 23 26 - - -
16/03:06pm - - - - - N 41 46 22 25 - - -
16/03:00pm - - - - - NE 41 46 22 25 - - -
16/02:30pm - - - - - NE 41 48 22 26 - - -
16/02:00pm - - - - - NE 41 48 22 26 - - -
16/01:30pm - - - - - NE 37 44 20 24 - - -
16/01:00pm - - - - - NE 37 44 20 24 - - -
16/12:30pm - - - - - NE 35 41 19 22 - - -
16/12:00pm - - - - - NE 33 41 18 22 - - -
16/11:30am - - - - - NE 32 37 17 20 - - -
16/11:00am - - - - - NE 26 32 14 17 - - -
16/10:30am - - - - - NE 20 22 11 12 - - -
16/10:00am - - - - - N 19 22 10 12 - - -
16/09:30am - - - - - NE 24 28 13 15 - - -
16/09:00am - - - - - NE 22 26 12 14 - - -
16/08:30am - - - - - NE 22 24 12 13 - - -
16/08:00am - - - - - N 20 24 11 13 - - -
16/07:30am - - - - - N 20 22 11 12 - - -
16/07:00am - - - - - N 20 24 11 13 - - -
16/06:30am - - - - - N 20 22 11 12 - - -
16/06:00am - - - - - NNW 19 22 10 12 - - -
16/05:30am - - - - - N 20 22 11 12 - - -
16/05:00am - - - - - N 22 24 12 13 - - -
16/04:30am - - - - - NNE 24 26 13 14 - - -
16/04:00am - - - - - NE 24 28 13 15 - - -
16/03:30am - - - - - N 24 28 13 15 - - -
16/03:00am - - - - - N 24 28 13 15 - - -
16/02:30am - - - - - N 24 28 13 15 - - -
16/02:00am - - - - - N 26 30 14 16 - - -
16/01:30am - - - - - N 28 32 15 17 - - -
16/01:00am - - - - - N 26 30 14 16 - - -
16/12:30am - - - - - N 26 32 14 17 - - -
16/12:00am - - - - - N 26 30 14 16 - - -
 
Date/Time
EST
Tmp

°C
App
Tmp
°C
Dew
Point
°C
Rel
Hum
%
Delta-T

°C
Wind Press
QNH
hPa
Press
MSL
hPa
Rain
since
9 am
mm
Dir
 
Spd
km/h
Gust
km/h
Spd
kts
Gust
kts
15/11:30pm - - - - - N 28 33 15 18 - - -
15/11:00pm - - - - - N 28 32 15 17 - - -
15/10:30pm - - - - - N 24 30 13 16 - - -
15/10:00pm - - - - - NE 26 32 14 17 - - -
15/09:30pm - - - - - NE 26 30 14 16 - - -
15/09:00pm - - - - - NE 26 30 14 16 - - -
15/08:30pm - - - - - NE 28 32 15 17 - - -
15/08:00pm - - - - - NE 28 32 15 17 - - -
15/07:30pm - - - - - NE 28 32 15 17 - - -
15/07:00pm - - - - - NE 28 32 15 17 - - -
15/06:30pm - - - - - NE 30 35 16 19 - - -
15/06:00pm - - - - - NE 28 33 15 18 - - -
15/05:30pm - - - - - NE 32 35 17 19 - - -
15/05:00pm - - - - - NE 33 39 18 21 - - -
15/04:30pm - - - - - NE 32 39 17 21 - - -
15/04:00pm - - - - - NE 32 39 17 21 - - -

Latest Capital City Observations: Canberra | Sydney | Melbourne | Brisbane | Adelaide | Perth | Hobart | Darwin

Other Formats:

Comma delimited format used in spreadsheet applications
http://www.bom.gov.au/fwo/IDQ60901/IDQ60901.94590.axf

JavaScript Object Notation format (JSON) in row-major order
http://www.bom.gov.au/fwo/IDQ60901/IDQ60901.94590.json